createdAt,value
2018-11-12T00:00:23.478Z,12.37
2018-11-12T00:01:23.420Z,12.41
2018-11-12T00:02:23.456Z,12.30
2018-11-12T00:03:23.460Z,12.29
2018-11-12T00:04:23.418Z,12.31
2018-11-12T00:05:23.422Z,12.31
2018-11-12T00:06:23.411Z,12.36
2018-11-12T00:07:23.359Z,12.34
2018-11-12T00:08:23.389Z,12.31
2018-11-12T00:09:23.424Z,12.36
2018-11-12T00:10:23.321Z,12.34
2018-11-12T00:11:23.314Z,12.30
2018-11-12T00:12:23.304Z,12.33
2018-11-12T00:13:23.344Z,12.34
2018-11-12T00:14:23.354Z,12.30
2018-11-12T00:15:23.318Z,12.33
2018-11-12T00:16:23.309Z,12.34
2018-11-12T00:17:23.357Z,12.30
2018-11-12T00:18:23.363Z,12.15
2018-11-12T00:19:23.224Z,12.31
2018-11-12T00:20:23.270Z,12.30
2018-11-12T00:21:23.218Z,12.33
2018-11-12T00:22:23.196Z,12.18
2018-11-12T00:23:23.299Z,12.21
2018-11-12T00:24:23.181Z,12.22
2018-11-12T00:25:23.178Z,12.16
2018-11-12T00:26:23.196Z,12.22
2018-11-12T00:27:23.214Z,12.19
2018-11-12T00:28:23.205Z,12.13
2018-11-12T00:29:23.161Z,12.18
2018-11-12T00:30:23.108Z,12.13
2018-11-12T00:31:23.110Z,12.15
2018-11-12T00:32:23.087Z,12.30
2018-11-12T00:33:23.173Z,12.16
2018-11-12T00:34:23.067Z,12.16
2018-11-12T00:35:23.112Z,12.18
2018-11-12T00:36:23.045Z,12.22
2018-11-12T00:37:23.091Z,12.19
2018-11-12T00:38:23.101Z,12.16
2018-11-12T00:39:23.095Z,12.18
2018-11-12T00:40:23.078Z,12.26
2018-11-12T00:41:23.061Z,12.16
2018-11-12T00:42:22.981Z,12.30
2018-11-12T00:43:23.011Z,12.30
2018-11-12T00:44:23.007Z,12.31
2018-11-12T00:45:23.031Z,12.34
2018-11-12T00:46:22.976Z,12.37
2018-11-12T00:47:22.966Z,12.30
2018-11-12T00:48:22.975Z,12.26
2018-11-12T00:49:22.976Z,12.22
2018-11-12T00:50:22.942Z,12.26
2018-11-12T00:51:22.957Z,12.19
2018-11-12T00:52:22.923Z,12.18
2018-11-12T00:53:22.904Z,12.21
2018-11-12T00:54:22.898Z,12.19
2018-11-12T00:55:22.886Z,12.23
2018-11-12T00:56:22.902Z,12.16
2018-11-12T00:57:22.892Z,12.18
2018-11-12T00:58:22.900Z,12.16
2018-11-12T00:59:22.794Z,12.16
2018-11-12T01:00:22.838Z,12.30
2018-11-12T01:01:22.851Z,12.18
2018-11-12T01:02:22.822Z,12.30
2018-11-12T01:03:22.746Z,12.30
2018-11-12T01:04:22.763Z,12.29
2018-11-12T01:05:22.774Z,12.16
2018-11-12T01:06:22.725Z,12.29
2018-11-12T01:07:22.754Z,12.25
2018-11-12T01:08:22.773Z,12.22
2018-11-12T01:09:22.712Z,12.34
2018-11-12T01:10:22.714Z,12.31
2018-11-12T01:11:22.661Z,12.19
2018-11-12T01:12:22.647Z,12.23
2018-11-12T01:13:22.703Z,12.25
2018-11-12T01:14:22.672Z,12.19
2018-11-12T01:15:22.656Z,12.18
2018-11-12T01:16:22.696Z,12.31
2018-11-12T01:17:22.644Z,12.31
2018-11-12T01:18:22.662Z,12.16
2018-11-12T01:19:22.627Z,12.38
2018-11-12T01:20:22.612Z,12.33
2018-11-12T01:21:22.595Z,12.16
2018-11-12T01:22:22.586Z,12.22
2018-11-12T01:23:22.577Z,12.21
2018-11-12T01:24:22.656Z,12.31
2018-11-12T01:25:22.580Z,12.25
2018-11-12T01:26:22.643Z,12.31
2018-11-12T01:27:22.487Z,12.26
2018-11-12T01:28:22.475Z,12.37
2018-11-12T01:29:22.506Z,12.23
2018-11-12T01:30:22.469Z,12.22
2018-11-12T01:31:22.542Z,12.18
2018-11-12T01:32:22.483Z,12.21
2018-11-12T01:33:22.469Z,12.18
2018-11-12T01:34:22.414Z,12.18
2018-11-12T01:35:22.459Z,12.30
2018-11-12T01:36:22.499Z,12.16
2018-11-12T01:37:22.426Z,12.21
2018-11-12T01:38:22.447Z,12.23
2018-11-12T01:39:22.422Z,12.23
2018-11-12T01:40:22.357Z,12.19
2018-11-12T01:41:22.331Z,12.23
2018-11-12T01:42:22.434Z,12.16
2018-11-12T01:43:22.313Z,12.22
2018-11-12T01:44:22.382Z,12.13
2018-11-12T01:45:22.297Z,12.07
2018-11-12T01:46:22.322Z,12.12
2018-11-12T01:47:22.292Z,12.13
2018-11-12T01:48:22.313Z,12.16
2018-11-12T01:49:22.300Z,12.07
2018-11-12T01:50:22.235Z,12.11
2018-11-12T01:51:22.230Z,12.08
2018-11-12T01:52:22.294Z,12.08
2018-11-12T01:53:22.248Z,12.04
2018-11-12T01:54:22.276Z,12.11
2018-11-12T01:55:22.222Z,12.11
2018-11-12T01:56:22.175Z,12.01
2018-11-12T01:57:22.224Z,12.11
2018-11-12T01:58:22.242Z,12.12
2018-11-12T01:59:22.181Z,12.12
2018-11-12T02:00:22.181Z,12.07
2018-11-12T02:01:22.165Z,12.11
2018-11-12T02:02:22.148Z,12.08
2018-11-12T02:03:22.168Z,12.16
2018-11-12T02:04:22.129Z,12.13
2018-11-12T02:05:22.135Z,12.11
2018-11-12T02:06:22.062Z,12.12
2018-11-12T02:07:22.056Z,12.15
2018-11-12T02:08:22.170Z,12.12
2018-11-12T02:09:22.069Z,12.05
2018-11-12T02:10:22.066Z,12.18
2018-11-12T02:11:22.062Z,12.11
2018-11-12T02:12:22.053Z,12.05
2018-11-12T02:13:22.429Z,12.11
2018-11-12T02:14:22.020Z,12.07
2018-11-12T02:15:22.001Z,12.16
2018-11-12T02:16:22.011Z,12.16
2018-11-12T02:17:21.947Z,12.15
2018-11-12T02:18:21.931Z,12.19
2018-11-12T02:19:22.110Z,12.19
2018-11-12T02:20:21.991Z,12.18
2018-11-12T02:21:21.949Z,12.16
2018-11-12T02:22:21.940Z,12.07
2018-11-12T02:23:21.894Z,12.21
2018-11-12T02:24:21.949Z,12.13
2018-11-12T02:25:21.905Z,12.18
2018-11-12T02:26:21.840Z,12.13
2018-11-12T02:27:21.875Z,12.19
2018-11-12T02:28:21.874Z,12.19
2018-11-12T02:29:21.934Z,12.16
2018-11-12T02:30:21.851Z,12.16
2018-11-12T02:31:21.835Z,12.12
2018-11-12T02:32:21.850Z,12.16
2018-11-12T02:33:21.906Z,12.18
2018-11-12T02:34:21.826Z,12.18
2018-11-12T02:35:21.833Z,12.21
2018-11-12T02:36:21.778Z,12.16
2018-11-12T02:37:21.726Z,12.13
2018-11-12T02:38:21.759Z,12.15
2018-11-12T02:39:21.789Z,12.13
2018-11-12T02:40:21.750Z,12.13
2018-11-12T02:41:21.729Z,12.07
2018-11-12T02:42:21.665Z,12.15
2018-11-12T02:43:21.699Z,12.08
2018-11-12T02:44:21.742Z,12.12
2018-11-12T02:45:21.636Z,12.07
2018-11-12T02:46:21.673Z,12.13
2018-11-12T02:47:21.659Z,12.08
2018-11-12T02:48:21.688Z,12.11
2018-11-12T02:49:21.626Z,12.11
2018-11-12T02:50:21.636Z,12.08
2018-11-12T02:51:21.623Z,12.16
2018-11-12T02:52:21.645Z,12.08
2018-11-12T02:53:21.591Z,12.04
2018-11-12T02:54:21.583Z,12.08
2018-11-12T02:55:21.602Z,12.03
2018-11-12T02:56:21.578Z,12.11
2018-11-12T02:57:21.574Z,12.13
2018-11-12T02:58:21.492Z,12.04
2018-11-12T02:59:21.531Z,12.16
2018-11-12T03:00:21.518Z,12.13
2018-11-12T03:01:21.532Z,12.19
2018-11-12T03:02:21.503Z,12.13
2018-11-12T03:03:21.485Z,12.15
2018-11-12T03:04:21.480Z,12.13
2018-11-12T03:05:21.536Z,12.15
2018-11-12T03:06:21.451Z,12.13
2018-11-12T03:07:21.439Z,12.13
2018-11-12T03:08:21.446Z,12.18
2018-11-12T03:09:21.431Z,12.11
2018-11-12T03:10:21.403Z,12.12
2018-11-12T03:11:21.395Z,12.16
2018-11-12T03:12:21.340Z,12.21
2018-11-12T03:13:21.380Z,12.15
2018-11-12T03:14:21.330Z,12.18
2018-11-12T03:15:21.339Z,12.15
2018-11-12T03:16:21.352Z,12.19
2018-11-12T03:17:21.378Z,12.23
2018-11-12T03:18:21.330Z,12.13
2018-11-12T03:19:21.312Z,12.16
2018-11-12T03:20:21.304Z,12.15
2018-11-12T03:21:21.325Z,12.15
2018-11-12T03:22:21.289Z,12.15
2018-11-12T03:23:21.271Z,12.05
2018-11-12T03:24:21.219Z,12.16
2018-11-12T03:25:21.248Z,12.13
2018-11-12T03:26:21.338Z,12.12
2018-11-12T03:27:21.229Z,12.13
2018-11-12T03:28:21.225Z,12.19
2018-11-12T03:29:21.210Z,12.18
2018-11-12T03:30:21.209Z,12.16
2018-11-12T03:31:21.213Z,12.12
2018-11-12T03:32:21.128Z,12.18
2018-11-12T03:33:21.198Z,12.11
2018-11-12T03:34:21.110Z,12.12
2018-11-12T03:35:21.133Z,12.15
2018-11-12T03:36:21.194Z,12.12
2018-11-12T03:37:21.125Z,12.07
2018-11-12T03:38:21.123Z,12.04
2018-11-12T03:39:21.096Z,12.12
2018-11-12T03:40:21.092Z,12.08
2018-11-12T03:41:21.121Z,12.12
2018-11-12T03:42:21.018Z,12.12
2018-11-12T03:43:21.053Z,12.11
2018-11-12T03:44:21.041Z,12.01
2018-11-12T03:45:21.037Z,12.13
2018-11-12T03:46:21.251Z,12.07
2018-11-12T03:47:21.016Z,12.08
2018-11-12T03:48:20.952Z,12.05
2018-11-12T03:49:21.000Z,12.13
2018-11-12T03:50:21.004Z,12.08
2018-11-12T03:51:20.980Z,12.12
2018-11-12T03:52:20.991Z,12.00
2018-11-12T03:53:20.943Z,12.01
2018-11-12T03:54:20.950Z,12.00
2018-11-12T03:55:20.923Z,11.98
2018-11-12T03:56:20.911Z,11.87
2018-11-12T03:57:20.881Z,11.90
2018-11-12T03:58:20.923Z,11.93
2018-11-12T03:59:20.839Z,11.93
2018-11-12T04:00:20.963Z,11.97
2018-11-12T04:01:20.885Z,11.96
2018-11-12T04:02:20.859Z,11.96
2018-11-12T04:03:20.856Z,12.01
2018-11-12T04:04:20.830Z,11.94
2018-11-12T04:05:21.042Z,11.93
2018-11-12T04:06:20.801Z,11.94
2018-11-12T04:07:20.791Z,11.94
2018-11-12T04:08:20.791Z,12.05
2018-11-12T04:09:20.788Z,12.01
2018-11-12T04:10:20.759Z,12.00
2018-11-12T04:11:20.816Z,12.03
2018-11-12T04:12:20.742Z,12.03
2018-11-12T04:13:20.676Z,11.94
2018-11-12T04:14:20.724Z,12.01
2018-11-12T04:15:20.833Z,12.00
2018-11-12T04:16:20.942Z,12.00
2018-11-12T04:17:20.634Z,11.97
2018-11-12T04:18:20.672Z,12.03
2018-11-12T04:19:20.738Z,12.04
2018-11-12T04:20:20.659Z,12.04
2018-11-12T04:21:20.637Z,12.03
2018-11-12T04:22:20.601Z,12.01
2018-11-12T04:23:20.657Z,12.05
2018-11-12T04:24:20.603Z,11.96
2018-11-12T04:25:20.656Z,11.98
2018-11-12T04:26:20.605Z,11.97
2018-11-12T04:27:20.560Z,12.01
2018-11-12T04:28:20.519Z,12.00
2018-11-12T04:29:20.616Z,11.98
2018-11-12T04:30:20.542Z,12.03
2018-11-12T04:31:20.534Z,12.04
2018-11-12T04:32:20.535Z,12.00
2018-11-12T04:33:20.752Z,11.94
2018-11-12T04:34:20.458Z,12.05
2018-11-12T04:35:20.488Z,11.98
2018-11-12T04:36:20.493Z,12.04
2018-11-12T04:37:20.469Z,12.05
2018-11-12T04:38:20.463Z,12.00
2018-11-12T04:39:20.497Z,12.03
2018-11-12T04:40:20.433Z,12.03
2018-11-12T04:41:20.375Z,12.05
2018-11-12T04:42:20.412Z,12.05
2018-11-12T04:43:20.387Z,12.01
2018-11-12T04:44:20.340Z,12.04
2018-11-12T04:45:20.397Z,12.01
2018-11-12T04:46:20.322Z,12.01
2018-11-12T04:47:20.372Z,11.98
2018-11-12T04:48:20.440Z,11.98
2018-11-12T04:49:20.294Z,12.01
2018-11-12T04:50:20.335Z,12.00
2018-11-12T04:51:20.266Z,11.98
2018-11-12T04:52:20.299Z,12.03
2018-11-12T04:53:20.391Z,11.97
2018-11-12T04:54:20.253Z,12.00
2018-11-12T04:55:20.424Z,12.01
2018-11-12T04:56:20.215Z,11.98
2018-11-12T04:57:20.279Z,11.98
2018-11-12T04:58:20.267Z,12.07
2018-11-12T04:59:20.226Z,12.01
2018-11-12T05:00:20.238Z,11.97
2018-11-12T05:01:20.156Z,12.07
2018-11-12T05:02:20.191Z,11.98
2018-11-12T05:03:20.198Z,12.00
2018-11-12T05:04:20.187Z,12.03
2018-11-12T05:05:20.178Z,11.97
2018-11-12T05:06:20.106Z,12.00
2018-11-12T05:07:20.216Z,12.01
2018-11-12T05:08:20.135Z,12.01
2018-11-12T05:09:20.368Z,12.04
2018-11-12T05:10:20.111Z,12.04
2018-11-12T05:11:20.095Z,12.13
2018-11-12T05:12:20.051Z,12.05
2018-11-12T05:13:20.090Z,12.05
2018-11-12T05:14:20.021Z,12.08
2018-11-12T05:15:20.024Z,12.07
2018-11-12T05:16:20.034Z,12.05
2018-11-12T05:17:20.028Z,12.12
2018-11-12T05:18:19.974Z,12.05
2018-11-12T05:19:20.008Z,11.97
2018-11-12T05:20:19.948Z,12.00
2018-11-12T05:21:20.013Z,12.00
2018-11-12T05:22:20.069Z,12.07
2018-11-12T05:23:19.962Z,12.05
2018-11-12T05:24:19.922Z,12.05
2018-11-12T05:25:19.896Z,12.07
2018-11-12T05:26:20.202Z,12.11
2018-11-12T05:27:19.923Z,12.13
2018-11-12T05:28:19.992Z,12.11
2018-11-12T05:29:19.903Z,12.15
2018-11-12T05:30:19.891Z,12.13
2018-11-12T05:31:19.920Z,12.11
2018-11-12T05:32:19.892Z,12.12
2018-11-12T05:33:20.126Z,12.18
2018-11-12T05:34:19.874Z,12.08
2018-11-12T05:35:19.835Z,12.13
2018-11-12T05:36:19.817Z,12.15
2018-11-12T05:37:19.810Z,12.12
2018-11-12T05:38:19.931Z,12.12
2018-11-12T05:39:19.831Z,12.11
2018-11-12T05:40:19.812Z,12.05
2018-11-12T05:41:19.720Z,12.01
2018-11-12T05:42:19.755Z,12.04
2018-11-12T05:43:19.706Z,12.07
2018-11-12T05:44:19.749Z,12.03
2018-11-12T05:45:20.151Z,12.11
2018-11-12T05:46:19.727Z,12.04
2018-11-12T05:47:19.705Z,12.12
2018-11-12T05:48:19.717Z,12.07
2018-11-12T05:49:19.684Z,12.11
2018-11-12T05:50:19.676Z,12.05
2018-11-12T05:51:19.717Z,12.12
2018-11-12T05:52:19.676Z,12.13
2018-11-12T05:53:19.631Z,12.00
2018-11-12T05:54:19.624Z,12.16
2018-11-12T05:55:19.576Z,12.12
2018-11-12T05:56:19.636Z,12.07
2018-11-12T05:57:19.589Z,12.11
2018-11-12T05:58:19.624Z,12.18
2018-11-12T05:59:19.582Z,12.07
2018-11-12T06:00:19.569Z,12.11
2018-11-12T06:01:19.551Z,12.07
2018-11-12T06:02:19.540Z,12.12
2018-11-12T06:03:19.585Z,12.07
2018-11-12T06:04:19.523Z,12.08
2018-11-12T06:05:19.514Z,12.12
2018-11-12T06:06:19.495Z,12.05
2018-11-12T06:07:19.522Z,12.13
2018-11-12T06:08:19.475Z,12.08
2018-11-12T06:09:19.466Z,12.08
2018-11-12T06:10:19.461Z,12.12
2018-11-12T06:11:19.408Z,12.11
2018-11-12T06:12:19.495Z,12.04
2018-11-12T06:13:19.425Z,12.08
2018-11-12T06:14:19.410Z,12.12
2018-11-12T06:15:19.413Z,12.04
2018-11-12T06:16:19.394Z,12.16
2018-11-12T06:17:19.458Z,12.19
2018-11-12T06:18:19.356Z,12.08
2018-11-12T06:19:19.374Z,12.05
2018-11-12T06:20:19.338Z,12.21
2018-11-12T06:21:19.304Z,12.21
2018-11-12T06:22:19.326Z,12.18
2018-11-12T06:23:19.292Z,12.18
2018-11-12T06:24:19.303Z,12.18
2018-11-12T06:25:19.289Z,12.16
2018-11-12T06:26:19.292Z,12.19
2018-11-12T06:27:19.332Z,12.16
2018-11-12T06:28:19.286Z,12.19
2018-11-12T06:29:19.263Z,12.21
2018-11-12T06:30:19.242Z,12.23
2018-11-12T06:31:19.294Z,12.19
2018-11-12T06:32:19.210Z,12.21
2018-11-12T06:33:19.211Z,12.19
2018-11-12T06:34:19.201Z,12.21
2018-11-12T06:35:19.166Z,12.18
2018-11-12T06:36:19.195Z,12.23
2018-11-12T06:37:19.181Z,12.21
2018-11-12T06:38:19.137Z,12.19
2018-11-12T06:39:19.146Z,12.21
2018-11-12T06:40:19.085Z,12.22
2018-11-12T06:41:19.112Z,12.23
2018-11-12T06:42:19.117Z,12.19
2018-11-12T06:43:19.257Z,12.23
2018-11-12T06:44:19.075Z,12.18
2018-11-12T06:45:19.101Z,12.22
2018-11-12T06:46:19.073Z,12.13
2018-11-12T06:47:19.129Z,12.33
2018-11-12T06:48:19.036Z,12.30
2018-11-12T06:49:19.030Z,12.19
2018-11-12T06:50:19.045Z,12.18
2018-11-12T06:51:19.011Z,12.22
2018-11-12T06:52:19.004Z,12.19
2018-11-12T06:53:19.076Z,12.33
2018-11-12T06:54:18.966Z,12.37
2018-11-12T06:55:18.917Z,12.36
2018-11-12T06:56:18.962Z,12.30
2018-11-12T06:57:18.940Z,12.30
2018-11-12T06:58:18.960Z,12.33
2018-11-12T06:59:18.953Z,12.33
2018-11-12T07:00:18.914Z,12.30
2018-11-12T07:01:18.898Z,12.30
2018-11-12T07:02:18.882Z,12.30
2018-11-12T07:03:18.873Z,12.40
2018-11-12T07:04:18.895Z,12.46
2018-11-12T07:05:18.850Z,12.36
2018-11-12T07:06:18.880Z,12.31
2018-11-12T07:07:18.833Z,12.46
2018-11-12T07:08:18.819Z,12.43
2018-11-12T07:09:18.846Z,12.40
2018-11-12T07:10:18.761Z,12.36
2018-11-12T07:11:18.831Z,12.46
2018-11-12T07:12:18.777Z,12.46
2018-11-12T07:13:18.807Z,12.44
2018-11-12T07:14:18.723Z,12.44
2018-11-12T07:15:18.751Z,12.41
2018-11-12T07:16:18.756Z,12.41
2018-11-12T07:17:18.674Z,12.43
2018-11-12T07:18:18.713Z,12.43
2018-11-12T07:19:18.694Z,12.43
2018-11-12T07:20:18.830Z,12.43
2018-11-12T07:21:18.674Z,12.43
2018-11-12T07:22:18.642Z,12.41
2018-11-12T07:23:18.667Z,12.48
2018-11-12T07:24:18.673Z,12.48
2018-11-12T07:25:18.715Z,12.55
2018-11-12T07:26:18.630Z,12.54
2018-11-12T07:27:18.646Z,12.56
2018-11-12T07:28:18.606Z,12.59
2018-11-12T07:29:18.589Z,12.55
2018-11-12T07:30:18.580Z,12.54
2018-11-12T07:31:18.587Z,12.63
2018-11-12T07:32:18.599Z,12.56
2018-11-12T07:33:18.548Z,12.58
2018-11-12T07:34:18.535Z,12.58
2018-11-12T07:35:18.538Z,12.66
2018-11-12T07:36:18.512Z,12.67
2018-11-12T07:37:18.548Z,12.62
2018-11-12T07:38:18.498Z,12.73
2018-11-12T07:39:18.441Z,12.79
2018-11-12T07:40:18.471Z,12.80
2018-11-12T07:41:18.459Z,12.77
2018-11-12T07:42:18.485Z,12.89
2018-11-12T07:43:18.437Z,12.87
2018-11-12T07:44:18.433Z,12.91
2018-11-12T07:45:18.440Z,12.95
2018-11-12T07:46:18.418Z,13.12
2018-11-12T07:47:18.407Z,13.04
2018-11-12T07:48:18.418Z,13.13
2018-11-12T07:49:18.379Z,13.12
2018-11-12T07:50:18.372Z,13.12
2018-11-12T07:51:18.418Z,13.22
2018-11-12T07:52:18.348Z,13.32
2018-11-12T07:53:18.353Z,13.31
2018-11-12T07:54:18.399Z,13.36
2018-11-12T07:55:18.318Z,13.35
2018-11-12T07:56:18.390Z,13.43
2018-11-12T07:57:18.290Z,13.48
2018-11-12T07:58:18.299Z,13.47
2018-11-12T07:59:18.283Z,13.54
2018-11-12T08:00:18.255Z,13.57
2018-11-12T08:01:18.277Z,13.63
2018-11-12T08:02:18.234Z,13.55
2018-11-12T08:03:18.283Z,13.68
2018-11-12T08:04:18.209Z,13.63
2018-11-12T08:05:18.192Z,13.61
2018-11-12T08:06:18.199Z,13.73
2018-11-12T08:07:18.194Z,13.75
2018-11-12T08:08:18.155Z,13.83
2018-11-12T08:09:18.247Z,13.90
2018-11-12T08:10:18.146Z,13.88
2018-11-12T08:11:18.094Z,13.96
2018-11-12T08:12:18.123Z,14.01
2018-11-12T08:13:18.219Z,13.99
2018-11-12T08:14:18.160Z,14.04
2018-11-12T08:15:18.092Z,14.04
2018-11-12T08:16:18.035Z,14.11
2018-11-12T08:17:18.244Z,14.05
2018-11-12T08:18:18.062Z,14.17
2018-11-12T08:19:18.082Z,14.13
2018-11-12T08:20:17.992Z,14.12
2018-11-12T08:21:18.025Z,14.17
2018-11-12T08:22:17.975Z,14.13
2018-11-12T08:23:18.023Z,14.12
2018-11-12T08:24:18.086Z,14.17
2018-11-12T08:25:18.019Z,14.16
2018-11-12T08:26:17.974Z,14.19
2018-11-12T08:27:17.973Z,14.13
2018-11-12T08:28:17.970Z,14.17
2018-11-12T08:29:17.892Z,14.17
2018-11-12T08:30:18.001Z,14.31
2018-11-12T08:31:17.922Z,14.34
2018-11-12T08:32:17.901Z,14.29
2018-11-12T08:33:17.948Z,14.31
2018-11-12T08:34:17.884Z,14.31
2018-11-12T08:35:17.876Z,14.35
2018-11-12T08:36:17.916Z,14.35
2018-11-12T08:37:17.808Z,14.31
2018-11-12T08:38:17.839Z,14.39
2018-11-12T08:39:17.945Z,14.39
2018-11-12T08:40:17.840Z,14.38
2018-11-12T08:41:17.814Z,14.39
2018-11-12T08:42:17.798Z,14.42
2018-11-12T08:43:17.795Z,14.45
2018-11-12T08:44:17.774Z,14.46
2018-11-12T08:45:17.793Z,14.35
2018-11-12T08:46:17.755Z,14.44
2018-11-12T08:47:17.739Z,14.29
2018-11-12T08:48:17.737Z,14.36
2018-11-12T08:49:17.747Z,14.34
2018-11-12T08:50:17.744Z,14.31
2018-11-12T08:51:17.697Z,14.34
2018-11-12T08:52:17.793Z,14.38
2018-11-12T08:53:17.681Z,14.39
2018-11-12T08:54:17.723Z,14.34
2018-11-12T08:55:17.699Z,14.30
2018-11-12T08:56:17.998Z,14.38
2018-11-12T08:57:17.635Z,14.34
2018-11-12T08:58:18.406Z,14.29
2018-11-12T08:59:17.671Z,14.31
2018-11-12T09:00:17.598Z,14.35
2018-11-12T09:01:17.557Z,14.46
2018-11-12T09:02:17.595Z,14.46
2018-11-12T09:03:17.519Z,14.52
2018-11-12T09:04:17.551Z,14.57
2018-11-12T09:05:17.545Z,14.56
2018-11-12T09:06:17.669Z,14.54
2018-11-12T09:07:18.051Z,14.61
2018-11-12T09:08:17.462Z,14.63
2018-11-12T09:09:17.513Z,14.74
2018-11-12T09:10:17.578Z,14.82
2018-11-12T09:11:17.481Z,14.87
2018-11-12T09:12:17.738Z,14.82
2018-11-12T09:13:17.478Z,14.86
2018-11-12T09:14:17.444Z,14.91
2018-11-12T09:15:17.439Z,14.94
2018-11-12T09:16:17.383Z,14.91
2018-11-12T09:17:17.415Z,14.91
2018-11-12T09:18:17.422Z,15.00
2018-11-12T09:19:17.686Z,15.05
2018-11-12T09:20:17.441Z,15.07
2018-11-12T09:21:17.374Z,15.09
2018-11-12T09:22:17.391Z,15.13
2018-11-12T09:23:17.351Z,15.19
2018-11-12T09:24:17.390Z,15.18
2018-11-12T09:25:17.352Z,15.25
2018-11-12T09:26:17.331Z,15.25
2018-11-12T09:27:17.311Z,15.34
2018-11-12T09:28:17.294Z,15.43
2018-11-12T09:29:17.341Z,15.46
2018-11-12T09:30:17.559Z,15.48
2018-11-12T09:31:18.813Z,15.43
2018-11-12T09:32:17.263Z,15.53
2018-11-12T09:33:17.245Z,15.66
2018-11-12T09:34:17.239Z,15.64
2018-11-12T09:35:17.225Z,15.76
2018-11-12T09:36:17.261Z,15.80
2018-11-12T09:37:17.216Z,15.81
2018-11-12T09:38:17.215Z,15.91
2018-11-12T09:39:17.179Z,15.95
2018-11-12T09:40:17.177Z,15.98
2018-11-12T09:41:17.271Z,16.01
2018-11-12T09:42:17.153Z,16.08
2018-11-12T09:43:17.157Z,16.11
2018-11-12T09:44:17.169Z,16.11
2018-11-12T09:45:17.107Z,16.30
2018-11-12T09:46:17.106Z,16.17
2018-11-12T09:47:17.042Z,16.32
2018-11-12T09:48:17.112Z,16.30
2018-11-12T09:49:17.147Z,16.37
2018-11-12T09:50:17.277Z,16.47
2018-11-12T09:51:17.050Z,16.47
2018-11-12T09:52:17.043Z,16.54
2018-11-12T09:53:17.022Z,16.62
2018-11-12T09:54:17.153Z,16.66
2018-11-12T09:55:17.003Z,16.67
2018-11-12T09:56:17.285Z,16.78
2018-11-12T09:57:16.986Z,16.77
2018-11-12T09:58:16.977Z,16.82
2018-11-12T09:59:16.982Z,16.77
2018-11-12T10:00:17.095Z,16.82
2018-11-12T10:01:17.348Z,16.85
2018-11-12T10:02:17.653Z,16.90
2018-11-12T10:03:17.546Z,16.84
2018-11-12T10:04:17.122Z,16.90
2018-11-12T10:05:18.197Z,16.92
2018-11-12T10:06:18.251Z,16.92
2018-11-12T10:07:18.361Z,16.92
2018-11-12T10:08:18.338Z,16.96
2018-11-12T10:09:20.192Z,16.98
2018-11-12T10:10:18.619Z,17.00
2018-11-12T10:11:18.491Z,17.07
2018-11-12T10:12:20.238Z,17.06
2018-11-12T10:13:19.509Z,17.18
2018-11-12T10:14:19.183Z,17.18
2018-11-12T10:15:19.927Z,17.20
2018-11-12T10:16:18.770Z,17.22
2018-11-12T10:17:19.132Z,17.25
2018-11-12T10:18:17.723Z,17.24
2018-11-12T10:19:16.849Z,17.24
2018-11-12T10:20:16.734Z,17.15
2018-11-12T10:21:16.712Z,17.17
2018-11-12T10:22:16.706Z,17.15
2018-11-12T10:23:16.650Z,17.17
2018-11-12T10:24:16.708Z,17.17
2018-11-12T10:25:16.679Z,17.28
2018-11-12T10:26:16.669Z,17.36
2018-11-12T10:27:16.736Z,17.30
2018-11-12T10:28:16.686Z,17.33
2018-11-12T10:29:16.675Z,17.24
2018-11-12T10:30:16.882Z,17.27
2018-11-12T10:31:16.608Z,17.35
2018-11-12T10:32:16.598Z,17.30
2018-11-12T10:33:16.625Z,17.25
2018-11-12T10:34:16.622Z,17.32
2018-11-12T10:35:16.569Z,17.33
2018-11-12T10:36:16.590Z,17.28
2018-11-12T10:37:16.538Z,17.25
2018-11-12T10:38:16.531Z,17.38
2018-11-12T10:39:16.518Z,17.32
2018-11-12T10:40:16.510Z,17.36
2018-11-12T10:41:16.853Z,17.40
2018-11-12T10:42:16.500Z,17.35
2018-11-12T10:43:16.433Z,17.45
2018-11-12T10:44:16.464Z,17.47
2018-11-12T10:45:16.459Z,17.51
2018-11-12T10:46:16.443Z,17.53
2018-11-12T10:47:16.412Z,17.54
2018-11-12T10:48:16.443Z,17.58
2018-11-12T10:49:16.415Z,17.57
2018-11-12T10:50:16.399Z,17.60
2018-11-12T10:51:16.406Z,17.57
2018-11-12T10:52:16.382Z,17.62
2018-11-12T10:53:16.394Z,17.62
2018-11-12T10:54:16.429Z,17.68
2018-11-12T10:55:16.547Z,17.71
2018-11-12T10:56:16.336Z,17.79
2018-11-12T10:57:16.282Z,17.77
2018-11-12T10:58:16.347Z,17.77
2018-11-12T10:59:16.312Z,17.86
2018-11-12T11:00:16.332Z,17.87
2018-11-12T11:01:16.280Z,17.89
2018-11-12T11:02:16.225Z,17.77
2018-11-12T11:03:16.286Z,17.83
2018-11-12T11:04:16.257Z,17.83
2018-11-12T11:05:16.241Z,17.84
2018-11-12T11:06:16.229Z,17.87
2018-11-12T11:07:16.170Z,17.89
2018-11-12T11:08:16.389Z,17.96
2018-11-12T11:09:16.191Z,17.91
2018-11-12T11:10:16.194Z,18.02
2018-11-12T11:11:16.185Z,17.91
2018-11-12T11:12:16.188Z,18.02
2018-11-12T11:13:16.175Z,17.98
2018-11-12T11:14:16.882Z,18.04
2018-11-12T11:15:16.122Z,18.11
2018-11-12T11:16:16.075Z,18.16
2018-11-12T11:17:16.104Z,18.02
2018-11-12T11:18:16.160Z,18.09
2018-11-12T11:19:16.121Z,18.14
2018-11-12T11:20:16.119Z,18.17
2018-11-12T11:21:16.164Z,18.21
2018-11-12T11:22:16.116Z,18.26
2018-11-12T11:23:16.047Z,18.25
2018-11-12T11:24:16.040Z,18.14
2018-11-12T11:25:15.981Z,18.28
2018-11-12T11:26:16.041Z,18.19
2018-11-12T11:27:15.996Z,18.25
2018-11-12T11:28:15.986Z,18.21
2018-11-12T11:29:15.983Z,18.25
2018-11-12T11:30:16.005Z,18.26
2018-11-12T11:31:15.994Z,18.32
2018-11-12T11:32:15.959Z,18.28
2018-11-12T11:33:15.934Z,18.31
2018-11-12T11:34:15.977Z,18.38
2018-11-12T11:35:15.920Z,18.26
2018-11-12T11:36:15.884Z,18.29
2018-11-12T11:37:15.870Z,18.28
2018-11-12T11:38:15.888Z,18.32
2018-11-12T11:39:15.877Z,18.36
2018-11-12T11:40:46.062Z,18.35
2018-11-12T11:44:28.833Z,18.44
2018-11-12T11:45:27.825Z,18.46
2018-11-12T11:52:00.953Z,18.50
2018-11-12T11:53:00.840Z,18.44
2018-11-12T11:54:00.942Z,18.44
2018-11-12T12:11:14.119Z,18.54
2018-11-12T12:12:14.031Z,18.56
2018-11-12T12:13:14.071Z,18.59
2018-11-12T12:14:14.054Z,18.62
2018-11-12T12:15:14.048Z,18.59
2018-11-12T12:16:14.081Z,18.64
2018-11-12T12:17:14.023Z,18.64
2018-11-12T12:18:14.016Z,18.60
2018-11-12T12:19:14.064Z,18.66
2018-11-12T12:20:13.995Z,18.66
2018-11-12T12:21:14.087Z,18.76
2018-11-12T12:22:14.014Z,18.72
2018-11-12T12:23:14.032Z,18.83
2018-11-12T12:24:13.951Z,18.87
2018-11-12T12:25:14.382Z,18.91
2018-11-12T12:26:13.925Z,19.01
2018-11-12T12:27:13.946Z,19.05
2018-11-12T12:28:13.871Z,19.07
2018-11-12T12:29:13.893Z,19.12
2018-11-12T12:30:13.877Z,19.02
2018-11-12T12:31:13.900Z,19.07
2018-11-12T12:32:13.865Z,19.05
2018-11-12T12:33:13.862Z,19.10
2018-11-12T12:34:13.923Z,19.15
2018-11-12T12:35:13.856Z,19.15
2018-11-12T12:36:13.820Z,19.09
2018-11-12T12:37:13.804Z,19.12
2018-11-12T12:38:13.824Z,19.13
2018-11-12T12:39:13.786Z,19.21
2018-11-12T12:40:13.733Z,19.32
2018-11-12T12:41:13.756Z,19.40
2018-11-12T12:42:13.707Z,19.43
2018-11-12T12:43:13.777Z,19.43
2018-11-12T12:44:13.736Z,19.55
2018-11-12T12:45:13.808Z,19.47
2018-11-12T12:46:13.752Z,19.46
2018-11-12T12:47:13.692Z,19.49
2018-11-12T12:48:13.707Z,19.49
2018-11-12T12:49:13.679Z,19.60
2018-11-12T12:50:13.699Z,19.61
2018-11-12T12:51:13.669Z,19.52
2018-11-12T12:52:13.602Z,19.50
2018-11-12T12:53:13.624Z,19.60
2018-11-12T12:54:13.655Z,19.57
2018-11-12T12:55:13.686Z,19.57
2018-11-12T12:56:13.604Z,19.45
2018-11-12T12:57:13.578Z,19.42
2018-11-12T12:58:13.684Z,19.38
2018-11-12T12:59:13.593Z,19.42
2018-11-12T13:00:13.506Z,19.34
2018-11-12T13:01:13.499Z,19.25
2018-11-12T13:02:13.555Z,19.24
2018-11-12T13:03:13.508Z,19.24
2018-11-12T13:04:13.529Z,19.28
2018-11-12T13:05:13.449Z,19.30
2018-11-12T13:06:13.484Z,19.20
2018-11-12T13:07:13.500Z,19.17
2018-11-12T13:08:13.470Z,19.21
2018-11-12T13:09:13.479Z,19.21
2018-11-12T13:10:13.471Z,19.21
2018-11-12T13:11:13.433Z,19.27
2018-11-12T13:12:13.420Z,19.28
2018-11-12T13:13:13.386Z,19.30
2018-11-12T13:14:13.558Z,19.30
2018-11-12T13:15:13.490Z,19.34
2018-11-12T13:16:13.397Z,19.38
2018-11-12T13:17:13.412Z,19.43